RJFC(METAR)
07/27 17:00
RJFC 270800Z 16009KT 9999 FEW015 28/23 Q1000 RMK A2955=
戻る
トップページへ戻る
IMOC Co,.Ltd.